sensor_id;sensor_type;location;lat;lon;timestamp;P1;durP1;ratioP1;P2;durP2;ratioP2
42194;SDS011;27863;49.440;11.102;2022-11-15T00:03:03;5.80;;;5.30;;
42194;SDS011;27863;49.440;11.102;2022-11-15T00:06:22;6.00;;;5.27;;
42194;SDS011;27863;49.440;11.102;2022-11-15T00:09:41;5.83;;;5.33;;
42194;SDS011;27863;49.440;11.102;2022-11-15T00:13:04;5.70;;;5.13;;
42194;SDS011;27863;49.440;11.102;2022-11-15T00:16:32;7.23;;;6.53;;
42194;SDS011;27863;49.440;11.102;2022-11-15T00:19:52;6.23;;;5.70;;
42194;SDS011;27863;49.440;11.102;2022-11-15T00:23:11;6.17;;;5.60;;
42194;SDS011;27863;49.440;11.102;2022-11-15T00:26:30;7.13;;;6.03;;
42194;SDS011;27863;49.440;11.102;2022-11-15T00:29:49;5.97;;;5.47;;
42194;SDS011;27863;49.440;11.102;2022-11-15T00:33:08;6.20;;;5.63;;
42194;SDS011;27863;49.440;11.102;2022-11-15T00:36:27;7.93;;;5.73;;
42194;SDS011;27863;49.440;11.102;2022-11-15T00:39:47;6.33;;;5.83;;
42194;SDS011;27863;49.440;11.102;2022-11-15T00:43:06;6.43;;;5.83;;
42194;SDS011;27863;49.440;11.102;2022-11-15T00:46:26;5.57;;;4.93;;
42194;SDS011;27863;49.440;11.102;2022-11-15T00:49:45;7.50;;;6.30;;
42194;SDS011;27863;49.440;11.102;2022-11-15T00:53:04;5.97;;;5.47;;
42194;SDS011;27863;49.440;11.102;2022-11-15T00:56:23;6.13;;;5.63;;
42194;SDS011;27863;49.440;11.102;2022-11-15T00:59:43;10.87;;;6.90;;
42194;SDS011;27863;49.440;11.102;2022-11-15T01:03:02;6.13;;;5.50;;
42194;SDS011;27863;49.440;11.102;2022-11-15T01:06:21;5.93;;;5.40;;
42194;SDS011;27863;49.440;11.102;2022-11-15T01:09:40;6.57;;;5.97;;
42194;SDS011;27863;49.440;11.102;2022-11-15T01:12:59;6.10;;;5.57;;
42194;SDS011;27863;49.440;11.102;2022-11-15T01:16:18;6.07;;;5.53;;
42194;SDS011;27863;49.440;11.102;2022-11-15T01:19:37;6.37;;;5.77;;
42194;SDS011;27863;49.440;11.102;2022-11-15T01:22:56;6.40;;;5.63;;
42194;SDS011;27863;49.440;11.102;2022-11-15T01:26:15;6.33;;;5.73;;
42194;SDS011;27863;49.440;11.102;2022-11-15T01:29:35;6.43;;;5.87;;
42194;SDS011;27863;49.440;11.102;2022-11-15T01:32:54;6.23;;;5.73;;
42194;SDS011;27863;49.440;11.102;2022-11-15T01:36:14;8.03;;;6.03;;
42194;SDS011;27863;49.440;11.102;2022-11-15T01:39:35;6.10;;;5.60;;
42194;SDS011;27863;49.440;11.102;2022-11-15T01:42:53;6.87;;;6.13;;
42194;SDS011;27863;49.440;11.102;2022-11-15T01:46:23;6.20;;;5.60;;
42194;SDS011;27863;49.440;11.102;2022-11-15T01:50:00;6.27;;;5.67;;
42194;SDS011;27863;49.440;11.102;2022-11-15T01:53:23;6.43;;;5.93;;
42194;SDS011;27863;49.440;11.102;2022-11-15T01:56:45;6.03;;;5.47;;
42194;SDS011;27863;49.440;11.102;2022-11-15T02:00:07;7.33;;;6.23;;
42194;SDS011;27863;49.440;11.102;2022-11-15T02:03:31;6.77;;;6.17;;
42194;SDS011;27863;49.440;11.102;2022-11-15T02:06:54;6.40;;;5.80;;
42194;SDS011;27863;49.440;11.102;2022-11-15T02:10:20;6.33;;;5.80;;
42194;SDS011;27863;49.440;11.102;2022-11-15T02:13:40;5.37;;;4.97;;
42194;SDS011;27863;49.440;11.102;2022-11-15T02:24:37;6.43;;;5.80;;
42194;SDS011;27863;49.440;11.102;2022-11-15T02:39:10;5.97;;;5.47;;
42194;SDS011;27863;49.440;11.102;2022-11-15T02:42:32;5.77;;;5.33;;
42194;SDS011;27863;49.440;11.102;2022-11-15T02:46:14;6.30;;;5.80;;
42194;SDS011;27863;49.440;11.102;2022-11-15T02:49:42;6.80;;;6.20;;
42194;SDS011;27863;49.440;11.102;2022-11-15T02:53:04;8.50;;;5.13;;
42194;SDS011;27863;49.440;11.102;2022-11-15T02:56:23;5.87;;;5.27;;
42194;SDS011;27863;49.440;11.102;2022-11-15T03:07:00;5.40;;;4.70;;
42194;SDS011;27863;49.440;11.102;2022-11-15T03:14:22;6.20;;;5.70;;
42194;SDS011;27863;49.440;11.102;2022-11-15T03:17:47;6.63;;;5.80;;
42194;SDS011;27863;49.440;11.102;2022-11-15T03:21:10;6.83;;;6.23;;
42194;SDS011;27863;49.440;11.102;2022-11-15T03:24:30;6.87;;;6.27;;
42194;SDS011;27863;49.440;11.102;2022-11-15T03:27:54;6.10;;;5.60;;
42194;SDS011;27863;49.440;11.102;2022-11-15T03:31:15;6.67;;;6.07;;
42194;SDS011;27863;49.440;11.102;2022-11-15T03:34:59;6.57;;;5.73;;
42194;SDS011;27863;49.440;11.102;2022-11-15T03:38:27;7.87;;;5.87;;
42194;SDS011;27863;49.440;11.102;2022-11-15T03:48:38;5.33;;;4.93;;
42194;SDS011;27863;49.440;11.102;2022-11-15T03:52:17;6.43;;;5.83;;
42194;SDS011;27863;49.440;11.102;2022-11-15T03:55:37;6.47;;;5.87;;
42194;SDS011;27863;49.440;11.102;2022-11-15T03:58:56;5.93;;;5.43;;
42194;SDS011;27863;49.440;11.102;2022-11-15T04:02:15;6.70;;;5.97;;
42194;SDS011;27863;49.440;11.102;2022-11-15T04:05:34;5.87;;;5.37;;
42194;SDS011;27863;49.440;11.102;2022-11-15T04:08:53;6.33;;;5.73;;
42194;SDS011;27863;49.440;11.102;2022-11-15T04:12:12;5.67;;;5.10;;
42194;SDS011;27863;49.440;11.102;2022-11-15T04:15:31;7.60;;;5.27;;
42194;SDS011;27863;49.440;11.102;2022-11-15T04:18:51;5.60;;;5.10;;
42194;SDS011;27863;49.440;11.102;2022-11-15T04:22:30;5.13;;;4.63;;
42194;SDS011;27863;49.440;11.102;2022-11-15T04:26:11;5.53;;;5.03;;
42194;SDS011;27863;49.440;11.102;2022-11-15T04:29:34;7.77;;;4.80;;
42194;SDS011;27863;49.440;11.102;2022-11-15T04:32:54;6.80;;;5.27;;
42194;SDS011;27863;49.440;11.102;2022-11-15T04:36:14;6.00;;;5.40;;
42194;SDS011;27863;49.440;11.102;2022-11-15T04:39:52;5.70;;;4.73;;
42194;SDS011;27863;49.440;11.102;2022-11-15T04:43:11;6.87;;;6.23;;
42194;SDS011;27863;49.440;11.102;2022-11-15T04:46:30;6.23;;;5.70;;
42194;SDS011;27863;49.440;11.102;2022-11-15T04:49:49;8.07;;;5.27;;
42194;SDS011;27863;49.440;11.102;2022-11-15T04:53:08;6.93;;;5.37;;
42194;SDS011;27863;49.440;11.102;2022-11-15T04:56:27;6.90;;;5.73;;
42194;SDS011;27863;49.440;11.102;2022-11-15T04:59:46;5.30;;;4.80;;
42194;SDS011;27863;49.440;11.102;2022-11-15T05:03:05;7.60;;;6.23;;
42194;SDS011;27863;49.440;11.102;2022-11-15T05:06:43;5.47;;;4.97;;
42194;SDS011;27863;49.440;11.102;2022-11-15T05:10:02;5.70;;;5.10;;
42194;SDS011;27863;49.440;11.102;2022-11-15T05:13:22;5.57;;;5.10;;
42194;SDS011;27863;49.440;11.102;2022-11-15T05:16:41;6.10;;;5.23;;
42194;SDS011;27863;49.440;11.102;2022-11-15T05:20:00;6.33;;;5.73;;
42194;SDS011;27863;49.440;11.102;2022-11-15T05:23:19;6.47;;;5.93;;
42194;SDS011;27863;49.440;11.102;2022-11-15T05:26:38;6.70;;;6.07;;
42194;SDS011;27863;49.440;11.102;2022-11-15T05:29:57;6.07;;;5.57;;
42194;SDS011;27863;49.440;11.102;2022-11-15T05:33:17;5.67;;;4.77;;
42194;SDS011;27863;49.440;11.102;2022-11-15T05:36:45;9.23;;;7.03;;
42194;SDS011;27863;49.440;11.102;2022-11-15T05:40:04;14.13;;;6.70;;
42194;SDS011;27863;49.440;11.102;2022-11-15T05:43:24;10.73;;;6.70;;
42194;SDS011;27863;49.440;11.102;2022-11-15T05:46:43;8.40;;;6.53;;
42194;SDS011;27863;49.440;11.102;2022-11-15T05:50:02;11.43;;;7.40;;
42194;SDS011;27863;49.440;11.102;2022-11-15T05:53:22;8.93;;;6.80;;
42194;SDS011;27863;49.440;11.102;2022-11-15T05:56:42;6.90;;;5.87;;
42194;SDS011;27863;49.440;11.102;2022-11-15T06:00:01;6.97;;;6.27;;
42194;SDS011;27863;49.440;11.102;2022-11-15T06:03:21;8.30;;;5.23;;
42194;SDS011;27863;49.440;11.102;2022-11-15T06:06:40;6.57;;;5.77;;
42194;SDS011;27863;49.440;11.102;2022-11-15T06:09:59;5.63;;;5.13;;
42194;SDS011;27863;49.440;11.102;2022-11-15T06:13:18;6.87;;;6.27;;
42194;SDS011;27863;49.440;11.102;2022-11-15T06:16:38;5.40;;;4.83;;
42194;SDS011;27863;49.440;11.102;2022-11-15T06:19:57;5.77;;;5.13;;
42194;SDS011;27863;49.440;11.102;2022-11-15T06:23:16;6.90;;;5.30;;
42194;SDS011;27863;49.440;11.102;2022-11-15T06:26:35;5.73;;;5.23;;
42194;SDS011;27863;49.440;11.102;2022-11-15T06:29:54;5.57;;;4.37;;
42194;SDS011;27863;49.440;11.102;2022-11-15T06:33:13;6.53;;;5.13;;
42194;SDS011;27863;49.440;11.102;2022-11-15T06:36:34;8.30;;;4.93;;
42194;SDS011;27863;49.440;11.102;2022-11-15T06:39:54;4.43;;;4.03;;
42194;SDS011;27863;49.440;11.102;2022-11-15T06:43:13;8.83;;;4.73;;
42194;SDS011;27863;49.440;11.102;2022-11-15T06:46:33;6.47;;;4.67;;
42194;SDS011;27863;49.440;11.102;2022-11-15T06:49:52;5.37;;;4.87;;
42194;SDS011;27863;49.440;11.102;2022-11-15T06:53:11;12.53;;;5.07;;
42194;SDS011;27863;49.440;11.102;2022-11-15T06:56:30;6.60;;;5.23;;
42194;SDS011;27863;49.440;11.102;2022-11-15T06:59:49;5.80;;;4.70;;
42194;SDS011;27863;49.440;11.102;2022-11-15T07:03:09;6.07;;;4.33;;
42194;SDS011;27863;49.440;11.102;2022-11-15T07:06:28;6.10;;;4.40;;
42194;SDS011;27863;49.440;11.102;2022-11-15T07:09:47;5.53;;;4.90;;
42194;SDS011;27863;49.440;11.102;2022-11-15T07:13:06;10.97;;;5.30;;
42194;SDS011;27863;49.440;11.102;2022-11-15T07:16:26;6.10;;;4.47;;
42194;SDS011;27863;49.440;11.102;2022-11-15T07:19:45;4.63;;;3.93;;
42194;SDS011;27863;49.440;11.102;2022-11-15T07:23:04;3.43;;;3.13;;
42194;SDS011;27863;49.440;11.102;2022-11-15T07:26:23;4.20;;;3.65;;
42194;SDS011;27863;49.440;11.102;2022-11-15T07:29:43;7.88;;;4.68;;
42194;SDS011;27863;49.440;11.102;2022-11-15T07:33:02;5.28;;;4.45;;
42194;SDS011;27863;49.440;11.102;2022-11-15T07:36:21;6.80;;;5.30;;
42194;SDS011;27863;49.440;11.102;2022-11-15T07:39:40;6.60;;;4.28;;
42194;SDS011;27863;49.440;11.102;2022-11-15T07:43:03;5.78;;;4.20;;
42194;SDS011;27863;49.440;11.102;2022-11-15T07:46:23;5.45;;;3.45;;
42194;SDS011;27863;49.440;11.102;2022-11-15T07:49:42;4.53;;;3.50;;
42194;SDS011;27863;49.440;11.102;2022-11-15T07:53:01;4.05;;;3.45;;
42194;SDS011;27863;49.440;11.102;2022-11-15T07:56:21;4.97;;;3.63;;
42194;SDS011;27863;49.440;11.102;2022-11-15T07:59:40;3.40;;;3.10;;
42194;SDS011;27863;49.440;11.102;2022-11-15T08:03:09;5.85;;;3.30;;
42194;SDS011;27863;49.440;11.102;2022-11-15T08:06:30;3.03;;;2.72;;
42194;SDS011;27863;49.440;11.102;2022-11-15T08:09:49;3.60;;;3.07;;
42194;SDS011;27863;49.440;11.102;2022-11-15T08:13:09;3.00;;;2.80;;
42194;SDS011;27863;49.440;11.102;2022-11-15T08:16:29;3.30;;;3.00;;
42194;SDS011;27863;49.440;11.102;2022-11-15T08:19:48;3.70;;;3.33;;
42194;SDS011;27863;49.440;11.102;2022-11-15T08:23:07;3.40;;;3.10;;
42194;SDS011;27863;49.440;11.102;2022-11-15T08:26:28;5.00;;;3.43;;
42194;SDS011;27863;49.440;11.102;2022-11-15T08:29:48;3.17;;;2.87;;
42194;SDS011;27863;49.440;11.102;2022-11-15T08:33:12;3.20;;;2.90;;
42194;SDS011;27863;49.440;11.102;2022-11-15T08:36:32;3.50;;;3.20;;
42194;SDS011;27863;49.440;11.102;2022-11-15T08:39:52;3.37;;;3.07;;
42194;SDS011;27863;49.440;11.102;2022-11-15T08:43:11;3.70;;;3.40;;
42194;SDS011;27863;49.440;11.102;2022-11-15T08:46:33;3.37;;;3.03;;
42194;SDS011;27863;49.440;11.102;2022-11-15T08:49:52;3.07;;;2.80;;
42194;SDS011;27863;49.440;11.102;2022-11-15T08:53:12;3.27;;;2.97;;
42194;SDS011;27863;49.440;11.102;2022-11-15T08:56:31;2.90;;;2.70;;
42194;SDS011;27863;49.440;11.102;2022-11-15T08:59:50;3.07;;;2.77;;
42194;SDS011;27863;49.440;11.102;2022-11-15T09:03:10;2.83;;;2.63;;
42194;SDS011;27863;49.440;11.102;2022-11-15T09:06:29;3.27;;;2.60;;
42194;SDS011;27863;49.440;11.102;2022-11-15T09:09:51;3.03;;;2.83;;
42194;SDS011;27863;49.440;11.102;2022-11-15T09:13:10;2.80;;;2.60;;
42194;SDS011;27863;49.440;11.102;2022-11-15T09:16:30;2.93;;;2.73;;
42194;SDS011;27863;49.440;11.102;2022-11-15T09:19:49;2.97;;;2.50;;
42194;SDS011;27863;49.440;11.102;2022-11-15T09:23:08;3.60;;;3.30;;
42194;SDS011;27863;49.440;11.102;2022-11-15T09:26:27;2.87;;;2.67;;
42194;SDS011;27863;49.440;11.102;2022-11-15T09:29:46;3.07;;;2.43;;
42194;SDS011;27863;49.440;11.102;2022-11-15T09:33:08;4.23;;;2.77;;
42194;SDS011;27863;49.440;11.102;2022-11-15T09:36:31;5.50;;;2.47;;
42194;SDS011;27863;49.440;11.102;2022-11-15T09:39:49;2.53;;;2.33;;
42194;SDS011;27863;49.440;11.102;2022-11-15T09:50:50;4.43;;;2.90;;
42194;SDS011;27863;49.440;11.102;2022-11-15T09:53:57;2.73;;;2.13;;
42194;SDS011;27863;49.440;11.102;2022-11-15T09:57:09;2.57;;;2.17;;
42194;SDS011;27863;49.440;11.102;2022-11-15T10:03:18;2.37;;;2.17;;
42194;SDS011;27863;49.440;11.102;2022-11-15T10:06:24;2.80;;;2.53;;
42194;SDS011;27863;49.440;11.102;2022-11-15T10:09:27;2.70;;;2.10;;
42194;SDS011;27863;49.440;11.102;2022-11-15T10:12:32;2.43;;;2.23;;
42194;SDS011;27863;49.440;11.102;2022-11-15T10:15:33;2.70;;;1.83;;
42194;SDS011;27863;49.440;11.102;2022-11-15T10:18:35;8.07;;;2.00;;
42194;SDS011;27863;49.440;11.102;2022-11-15T10:25:33;2.30;;;1.93;;
42194;SDS011;27863;49.440;11.102;2022-11-15T10:28:34;1.83;;;1.73;;
42194;SDS011;27863;49.440;11.102;2022-11-15T10:31:37;2.23;;;2.03;;
42194;SDS011;27863;49.440;11.102;2022-11-15T10:34:39;1.95;;;1.75;;
42194;SDS011;27863;49.440;11.102;2022-11-15T10:37:40;2.43;;;1.83;;
42194;SDS011;27863;49.440;11.102;2022-11-15T10:40:42;1.50;;;1.40;;
42194;SDS011;27863;49.440;11.102;2022-11-15T10:43:44;2.30;;;1.67;;
42194;SDS011;27863;49.440;11.102;2022-11-15T10:46:46;2.80;;;1.60;;
42194;SDS011;27863;49.440;11.102;2022-11-15T10:49:54;1.65;;;1.55;;
42194;SDS011;27863;49.440;11.102;2022-11-15T10:53:02;1.73;;;1.63;;
42194;SDS011;27863;49.440;11.102;2022-11-15T10:56:05;2.97;;;1.40;;
42194;SDS011;27863;49.440;11.102;2022-11-15T10:59:14;1.50;;;1.40;;
42194;SDS011;27863;49.440;11.102;2022-11-15T11:02:36;2.15;;;1.50;;
42194;SDS011;27863;49.440;11.102;2022-11-15T11:05:39;1.80;;;1.65;;
42194;SDS011;27863;49.440;11.102;2022-11-15T11:08:40;1.30;;;1.20;;
42194;SDS011;27863;49.440;11.102;2022-11-15T11:11:58;1.40;;;1.30;;
42194;SDS011;27863;49.440;11.102;2022-11-15T11:14:59;2.00;;;1.40;;
42194;SDS011;27863;49.440;11.102;2022-11-15T11:18:06;1.40;;;1.30;;
42194;SDS011;27863;49.440;11.102;2022-11-15T11:21:10;3.63;;;1.45;;
42194;SDS011;27863;49.440;11.102;2022-11-15T11:24:15;1.40;;;1.30;;
42194;SDS011;27863;49.440;11.102;2022-11-15T11:43:41;1.35;;;1.20;;
42194;SDS011;27863;49.440;11.102;2022-11-15T11:47:00;1.48;;;1.30;;
42194;SDS011;27863;49.440;11.102;2022-11-15T11:50:10;2.17;;;1.17;;
42194;SDS011;27863;49.440;11.102;2022-11-15T11:53:15;4.45;;;1.92;;
42194;SDS011;27863;49.440;11.102;2022-11-15T11:56:29;1.23;;;1.13;;
42194;SDS011;27863;49.440;11.102;2022-11-15T12:03:00;1.80;;;1.20;;
42194;SDS011;27863;49.440;11.102;2022-11-15T12:06:19;2.22;;;1.10;;
42194;SDS011;27863;49.440;11.102;2022-11-15T12:09:33;1.25;;;1.15;;
42194;SDS011;27863;49.440;11.102;2022-11-15T12:16:14;1.45;;;1.00;;
42194;SDS011;27863;49.440;11.102;2022-11-15T12:19:21;2.58;;;1.45;;
42194;SDS011;27863;49.440;11.102;2022-11-15T12:22:36;1.08;;;0.95;;
42194;SDS011;27863;49.440;11.102;2022-11-15T12:25:48;1.05;;;1.05;;
42194;SDS011;27863;49.440;11.102;2022-11-15T12:28:54;1.20;;;0.98;;
42194;SDS011;27863;49.440;11.102;2022-11-15T12:31:57;1.10;;;1.00;;
42194;SDS011;27863;49.440;11.102;2022-11-15T12:35:00;2.17;;;1.30;;
42194;SDS011;27863;49.440;11.102;2022-11-15T12:38:02;1.50;;;0.93;;
42194;SDS011;27863;49.440;11.102;2022-11-15T12:41:14;1.25;;;1.15;;
42194;SDS011;27863;49.440;11.102;2022-11-15T12:45:03;1.35;;;1.20;;
42194;SDS011;27863;49.440;11.102;2022-11-15T12:47:38;1.33;;;1.23;;
42194;SDS011;27863;49.440;11.102;2022-11-15T12:53:51;1.83;;;1.35;;
42194;SDS011;27863;49.440;11.102;2022-11-15T13:03:24;1.98;;;1.50;;
42194;SDS011;27863;49.440;11.102;2022-11-15T13:06:37;1.48;;;1.20;;
42194;SDS011;27863;49.440;11.102;2022-11-15T13:18:57;2.00;;;1.42;;
42194;SDS011;27863;49.440;11.102;2022-11-15T13:21:59;7.70;;;1.83;;
42194;SDS011;27863;49.440;11.102;2022-11-15T13:28:26;1.52;;;1.33;;
42194;SDS011;27863;49.440;11.102;2022-11-15T13:31:35;1.48;;;1.38;;
42194;SDS011;27863;49.440;11.102;2022-11-15T13:34:37;2.80;;;1.33;;
42194;SDS011;27863;49.440;11.102;2022-11-15T13:37:38;2.00;;;1.70;;
42194;SDS011;27863;49.440;11.102;2022-11-15T13:40:39;2.83;;;2.20;;
42194;SDS011;27863;49.440;11.102;2022-11-15T13:43:40;2.25;;;1.80;;
42194;SDS011;27863;49.440;11.102;2022-11-15T13:46:40;2.58;;;1.25;;
42194;SDS011;27863;49.440;11.102;2022-11-15T13:49:42;2.05;;;1.48;;
42194;SDS011;27863;49.440;11.102;2022-11-15T13:52:43;2.25;;;1.58;;
42194;SDS011;27863;49.440;11.102;2022-11-15T13:55:44;1.25;;;1.15;;
42194;SDS011;27863;49.440;11.102;2022-11-15T13:58:44;2.53;;;1.45;;
42194;SDS011;27863;49.440;11.102;2022-11-15T14:01:45;2.42;;;1.45;;
42194;SDS011;27863;49.440;11.102;2022-11-15T14:08:21;2.28;;;1.63;;
42194;SDS011;27863;49.440;11.102;2022-11-15T14:11:23;1.45;;;1.30;;
42194;SDS011;27863;49.440;11.102;2022-11-15T14:14:25;5.68;;;2.28;;
42194;SDS011;27863;49.440;11.102;2022-11-15T14:23:32;4.40;;;1.97;;
42194;SDS011;27863;49.440;11.102;2022-11-15T14:26:34;2.63;;;2.10;;
42194;SDS011;27863;49.440;11.102;2022-11-15T14:29:35;2.90;;;1.97;;
42194;SDS011;27863;49.440;11.102;2022-11-15T14:32:42;2.67;;;1.50;;
42194;SDS011;27863;49.440;11.102;2022-11-15T14:35:45;2.27;;;2.00;;
42194;SDS011;27863;49.440;11.102;2022-11-15T14:38:46;4.43;;;3.67;;
42194;SDS011;27863;49.440;11.102;2022-11-15T14:41:46;2.53;;;2.33;;
42194;SDS011;27863;49.440;11.102;2022-11-15T14:44:47;3.43;;;1.97;;
42194;SDS011;27863;49.440;11.102;2022-11-15T14:47:48;5.77;;;1.87;;
42194;SDS011;27863;49.440;11.102;2022-11-15T14:50:49;2.87;;;2.57;;
42194;SDS011;27863;49.440;11.102;2022-11-15T14:53:50;5.67;;;2.97;;
42194;SDS011;27863;49.440;11.102;2022-11-15T14:56:51;3.17;;;2.73;;
42194;SDS011;27863;49.440;11.102;2022-11-15T14:59:51;4.03;;;2.60;;
42194;SDS011;27863;49.440;11.102;2022-11-15T15:02:52;3.37;;;2.90;;
42194;SDS011;27863;49.440;11.102;2022-11-15T15:05:53;3.10;;;2.90;;
42194;SDS011;27863;49.440;11.102;2022-11-15T15:08:55;3.40;;;2.57;;
42194;SDS011;27863;49.440;11.102;2022-11-15T15:11:55;3.67;;;2.90;;
42194;SDS011;27863;49.440;11.102;2022-11-15T15:14:56;3.40;;;3.03;;
42194;SDS011;27863;49.440;11.102;2022-11-15T15:17:57;8.73;;;5.03;;
42194;SDS011;27863;49.440;11.102;2022-11-15T15:20:58;6.97;;;3.80;;
42194;SDS011;27863;49.440;11.102;2022-11-15T15:24:02;5.93;;;3.27;;
42194;SDS011;27863;49.440;11.102;2022-11-15T15:27:03;3.90;;;3.00;;
42194;SDS011;27863;49.440;11.102;2022-11-15T15:30:03;3.00;;;2.60;;
42194;SDS011;27863;49.440;11.102;2022-11-15T15:33:07;5.80;;;3.23;;
42194;SDS011;27863;49.440;11.102;2022-11-15T15:36:10;3.07;;;2.40;;
42194;SDS011;27863;49.440;11.102;2022-11-15T15:39:12;10.77;;;3.33;;
42194;SDS011;27863;49.440;11.102;2022-11-15T15:42:12;3.87;;;3.03;;
42194;SDS011;27863;49.440;11.102;2022-11-15T15:45:13;5.63;;;3.60;;
42194;SDS011;27863;49.440;11.102;2022-11-15T15:48:17;3.53;;;3.10;;
42194;SDS011;27863;49.440;11.102;2022-11-15T15:51:17;4.87;;;3.47;;
42194;SDS011;27863;49.440;11.102;2022-11-15T15:54:18;11.40;;;4.17;;
42194;SDS011;27863;49.440;11.102;2022-11-15T15:57:20;4.47;;;3.67;;
42194;SDS011;27863;49.440;11.102;2022-11-15T16:00:22;6.50;;;4.10;;
42194;SDS011;27863;49.440;11.102;2022-11-15T16:03:24;8.00;;;4.90;;
42194;SDS011;27863;49.440;11.102;2022-11-15T16:06:34;6.60;;;5.37;;
42194;SDS011;27863;49.440;11.102;2022-11-15T16:09:36;5.77;;;3.57;;
42194;SDS011;27863;49.440;11.102;2022-11-15T16:12:56;8.17;;;3.80;;
42194;SDS011;27863;49.440;11.102;2022-11-15T16:15:58;4.37;;;3.60;;
42194;SDS011;27863;49.440;11.102;2022-11-15T16:18:59;6.57;;;4.43;;
42194;SDS011;27863;49.440;11.102;2022-11-15T16:22:00;8.37;;;3.73;;
42194;SDS011;27863;49.440;11.102;2022-11-15T16:25:01;3.37;;;2.93;;
42194;SDS011;27863;49.440;11.102;2022-11-15T16:28:02;3.93;;;3.13;;
42194;SDS011;27863;49.440;11.102;2022-11-15T16:31:07;5.93;;;3.83;;
42194;SDS011;27863;49.440;11.102;2022-11-15T16:34:09;5.97;;;3.90;;
42194;SDS011;27863;49.440;11.102;2022-11-15T16:37:15;4.53;;;3.90;;
42194;SDS011;27863;49.440;11.102;2022-11-15T16:40:25;7.43;;;4.73;;
42194;SDS011;27863;49.440;11.102;2022-11-15T16:43:27;4.83;;;4.33;;
42194;SDS011;27863;49.440;11.102;2022-11-15T16:46:27;4.30;;;3.83;;
42194;SDS011;27863;49.440;11.102;2022-11-15T16:49:29;4.97;;;3.37;;
42194;SDS011;27863;49.440;11.102;2022-11-15T16:52:29;4.87;;;4.37;;
42194;SDS011;27863;49.440;11.102;2022-11-15T16:55:30;4.77;;;4.07;;
42194;SDS011;27863;49.440;11.102;2022-11-15T16:58:30;5.70;;;4.73;;
42194;SDS011;27863;49.440;11.102;2022-11-15T17:01:33;5.17;;;4.53;;
42194;SDS011;27863;49.440;11.102;2022-11-15T17:04:34;6.53;;;4.67;;
42194;SDS011;27863;49.440;11.102;2022-11-15T17:07:35;6.13;;;4.50;;
42194;SDS011;27863;49.440;11.102;2022-11-15T17:10:37;5.60;;;5.10;;
42194;SDS011;27863;49.440;11.102;2022-11-15T17:13:39;6.93;;;5.07;;
42194;SDS011;27863;49.440;11.102;2022-11-15T17:16:39;5.20;;;4.70;;
42194;SDS011;27863;49.440;11.102;2022-11-15T17:19:41;6.43;;;5.47;;
42194;SDS011;27863;49.440;11.102;2022-11-15T17:22:42;13.40;;;7.30;;
42194;SDS011;27863;49.440;11.102;2022-11-15T17:25:43;11.60;;;7.20;;
42194;SDS011;27863;49.440;11.102;2022-11-15T17:28:44;14.83;;;10.47;;
42194;SDS011;27863;49.440;11.102;2022-11-15T17:31:47;8.47;;;6.33;;
42194;SDS011;27863;49.440;11.102;2022-11-15T17:34:50;8.83;;;6.67;;
42194;SDS011;27863;49.440;11.102;2022-11-15T17:37:51;9.67;;;6.40;;
42194;SDS011;27863;49.440;11.102;2022-11-15T17:41:05;7.27;;;6.57;;
42194;SDS011;27863;49.440;11.102;2022-11-15T17:44:09;9.93;;;6.43;;
42194;SDS011;27863;49.440;11.102;2022-11-15T17:47:09;7.33;;;5.80;;
42194;SDS011;27863;49.440;11.102;2022-11-15T17:50:10;6.83;;;6.23;;
42194;SDS011;27863;49.440;11.102;2022-11-15T17:53:11;6.33;;;5.67;;
42194;SDS011;27863;49.440;11.102;2022-11-15T17:56:12;8.80;;;6.83;;
42194;SDS011;27863;49.440;11.102;2022-11-15T17:59:16;6.83;;;6.23;;
42194;SDS011;27863;49.440;11.102;2022-11-15T18:02:18;6.33;;;5.83;;
42194;SDS011;27863;49.440;11.102;2022-11-15T18:05:18;6.20;;;5.60;;
42194;SDS011;27863;49.440;11.102;2022-11-15T18:08:19;5.80;;;5.27;;
42194;SDS011;27863;49.440;11.102;2022-11-15T18:11:21;7.60;;;5.87;;
42194;SDS011;27863;49.440;11.102;2022-11-15T18:14:23;5.90;;;5.30;;
42194;SDS011;27863;49.440;11.102;2022-11-15T18:17:25;6.20;;;5.60;;
42194;SDS011;27863;49.440;11.102;2022-11-15T18:20:26;5.93;;;5.37;;
42194;SDS011;27863;49.440;11.102;2022-11-15T18:23:27;8.20;;;5.20;;
42194;SDS011;27863;49.440;11.102;2022-11-15T18:26:28;5.70;;;5.20;;
42194;SDS011;27863;49.440;11.102;2022-11-15T18:29:29;4.87;;;4.40;;
42194;SDS011;27863;49.440;11.102;2022-11-15T18:32:31;5.10;;;4.60;;
42194;SDS011;27863;49.440;11.102;2022-11-15T18:35:32;10.87;;;5.17;;
42194;SDS011;27863;49.440;11.102;2022-11-15T18:38:32;7.23;;;4.20;;
42194;SDS011;27863;49.440;11.102;2022-11-15T18:41:33;5.67;;;5.13;;
42194;SDS011;27863;49.440;11.102;2022-11-15T18:44:35;6.33;;;5.77;;
42194;SDS011;27863;49.440;11.102;2022-11-15T18:47:35;5.43;;;4.93;;
42194;SDS011;27863;49.440;11.102;2022-11-15T18:50:36;6.23;;;5.43;;
42194;SDS011;27863;49.440;11.102;2022-11-15T18:53:37;6.07;;;5.23;;
42194;SDS011;27863;49.440;11.102;2022-11-15T18:56:38;5.77;;;5.13;;
42194;SDS011;27863;49.440;11.102;2022-11-15T18:59:39;5.30;;;4.83;;
42194;SDS011;27863;49.440;11.102;2022-11-15T19:02:40;5.13;;;4.63;;
42194;SDS011;27863;49.440;11.102;2022-11-15T19:05:40;8.47;;;5.13;;
42194;SDS011;27863;49.440;11.102;2022-11-15T19:08:41;5.57;;;4.33;;
42194;SDS011;27863;49.440;11.102;2022-11-15T19:11:43;7.97;;;7.17;;
42194;SDS011;27863;49.440;11.102;2022-11-15T19:14:44;6.17;;;5.57;;
42194;SDS011;27863;49.440;11.102;2022-11-15T19:17:45;5.67;;;4.53;;
42194;SDS011;27863;49.440;11.102;2022-11-15T19:20:45;8.70;;;4.57;;
42194;SDS011;27863;49.440;11.102;2022-11-15T19:23:46;5.67;;;5.17;;
42194;SDS011;27863;49.440;11.102;2022-11-15T19:26:50;6.97;;;6.27;;
42194;SDS011;27863;49.440;11.102;2022-11-15T19:29:52;7.20;;;6.00;;
42194;SDS011;27863;49.440;11.102;2022-11-15T19:32:53;6.83;;;6.17;;
42194;SDS011;27863;49.440;11.102;2022-11-15T19:36:00;6.80;;;6.10;;
42194;SDS011;27863;49.440;11.102;2022-11-15T19:39:20;6.53;;;6.03;;
42194;SDS011;27863;49.440;11.102;2022-11-15T19:42:21;9.17;;;8.20;;
42194;SDS011;27863;49.440;11.102;2022-11-15T19:45:21;12.77;;;9.77;;
42194;SDS011;27863;49.440;11.102;2022-11-15T19:48:22;8.60;;;7.70;;
42194;SDS011;27863;49.440;11.102;2022-11-15T19:51:23;8.50;;;7.70;;
42194;SDS011;27863;49.440;11.102;2022-11-15T19:54:25;9.23;;;8.33;;
42194;SDS011;27863;49.440;11.102;2022-11-15T19:57:27;9.13;;;8.20;;
42194;SDS011;27863;49.440;11.102;2022-11-15T20:00:27;9.13;;;8.23;;
42194;SDS011;27863;49.440;11.102;2022-11-15T20:03:28;8.73;;;7.67;;
42194;SDS011;27863;49.440;11.102;2022-11-15T20:06:33;7.57;;;6.97;;
42194;SDS011;27863;49.440;11.102;2022-11-15T20:09:35;6.90;;;6.30;;
42194;SDS011;27863;49.440;11.102;2022-11-15T20:12:37;8.03;;;7.00;;
42194;SDS011;27863;49.440;11.102;2022-11-15T20:15:38;10.63;;;9.60;;
42194;SDS011;27863;49.440;11.102;2022-11-15T20:18:38;10.23;;;9.33;;
42194;SDS011;27863;49.440;11.102;2022-11-15T20:21:39;8.87;;;8.07;;
42194;SDS011;27863;49.440;11.102;2022-11-15T20:24:39;8.07;;;7.27;;
42194;SDS011;27863;49.440;11.102;2022-11-15T20:27:41;9.03;;;7.83;;
42194;SDS011;27863;49.440;11.102;2022-11-15T20:30:42;11.83;;;8.90;;
42194;SDS011;27863;49.440;11.102;2022-11-15T20:33:44;58.87;;;26.87;;
42194;SDS011;27863;49.440;11.102;2022-11-15T20:36:44;11.37;;;9.50;;
42194;SDS011;27863;49.440;11.102;2022-11-15T20:39:45;9.40;;;8.50;;
42194;SDS011;27863;49.440;11.102;2022-11-15T20:42:45;9.50;;;8.67;;